Time;durP1;ratioP1;P1;durP2;ratioP2;P2;SDS_P1;SDS_P2;PMS_P1;PMS_P2;Temp;Humidity;BMP_temperature;BMP_pressure;BME280_temperature;BME280_humidity;BME280_pressure;Samples;Min_cycle;Max_cycle;Signal;HPM_P1;HPM_P2
2023/06/23 00:00:53;;;;;;;;;4.67;2.33;;;;;;;;5026971;28;45519;-80
2023/06/23 00:03:19;;;;;;;;;4.33;2.33;;;;;;;;5031195;28;45513;-80
2023/06/23 00:05:44;;;;;;;;;4.00;4.00;;;;;;;;5033735;28;45519;-82
2023/06/23 00:08:10;;;;;;;;;6.67;3.00;;;;;;;;5032681;28;47227;-81
2023/06/23 00:10:35;;;;;;;;;6.00;3.00;;;;;;;;5011666;28;45749;-81
2023/06/23 00:13:02;;;;;;;;;3.67;3.00;;;;;;;;5032068;28;45699;-81
2023/06/23 00:15:28;;;;;;;;;5.00;4.00;;;;;;;;5031765;28;45514;-81
2023/06/23 00:17:53;;;;;;;;;4.75;3.00;;;;;;;;5033476;28;46308;-80
2023/06/23 00:20:19;;;;;;;;;5.75;3.00;;;;;;;;5032777;28;45427;-81
2023/06/23 00:22:45;;;;;;;;;4.00;3.50;;;;;;;;5029771;28;45455;-80
2023/06/23 00:25:11;;;;;;;;;5.00;3.00;;;;;;;;5030893;28;45365;-81
2023/06/23 00:27:39;;;;;;;;;5.50;3.00;;;;;;;;5032810;28;46484;-81
2023/06/23 00:30:05;;;;;;;;;5.75;2.00;;;;;;;;5024813;28;45770;-81
2023/06/23 00:32:30;;;;;;;;;6.00;3.50;;;;;;;;5027341;28;45413;-81
2023/06/23 00:34:55;;;;;;;;;3.00;3.00;;;;;;;;5026591;28;45485;-82
2023/06/23 00:37:20;;;;;;;;;2.67;2.67;;;;;;;;5032344;28;47305;-82
2023/06/23 00:39:45;;;;;;;;;1.00;1.00;;;;;;;;5033623;28;45388;-82
2023/06/23 00:42:11;;;;;;;;;2.67;2.67;;;;;;;;5029540;28;45508;-82
2023/06/23 00:44:37;;;;;;;;;3.00;3.00;;;;;;;;5035685;28;45463;-81
2023/06/23 00:47:03;;;;;;;;;3.25;1.00;;;;;;;;5031610;28;47273;-84
2023/06/23 00:49:29;;;;;;;;;3.25;3.00;;;;;;;;5033154;28;45511;-82
2023/06/23 00:51:55;;;;;;;;;4.00;2.00;;;;;;;;5026419;28;45682;-81
2023/06/23 00:54:23;;;;;;;;;2.00;2.00;;;;;;;;5025503;28;45474;-82
2023/06/23 00:56:49;;;;;;;;;2.50;2.25;;;;;;;;5030638;28;46394;-82
2023/06/23 00:59:15;;;;;;;;;2.75;2.75;;;;;;;;5030184;28;45514;-82
2023/06/23 01:01:40;;;;;;;;;4.25;2.00;;;;;;;;5029566;28;45387;-81
2023/06/23 01:04:06;;;;;;;;;3.00;3.00;;;;;;;;5029580;28;45511;-82
2023/06/23 01:06:37;;;;;;;;;2.75;2.00;;;;;;;;5032245;28;45360;-81
2023/06/23 01:09:21;;;;;;;;;3.25;2.00;;;;;;;;5028021;28;45341;-81
2023/06/23 01:12:02;;;;;;;;;3.00;3.00;;;;;;;;5026199;28;45412;-82
2023/06/23 01:14:30;;;;;;;;;5.25;3.00;;;;;;;;5012467;28;45608;-82
2023/06/23 01:17:03;;;;;;;;;5.50;3.00;;;;;;;;5031727;28;45697;-81
2023/06/23 01:19:47;;;;;;;;;7.25;3.00;;;;;;;;5023328;28;45525;-81
2023/06/23 01:22:21;;;;;;;;;3.75;3.00;;;;;;;;5026985;28;45535;-82
2023/06/23 01:25:06;;;;;;;;;5.00;4.00;;;;;;;;5033153;28;45395;-81
2023/06/23 01:27:43;;;;;;;;;3.75;3.50;;;;;;;;5028674;28;46167;-81
2023/06/23 01:30:11;;;;;;;;;3.75;3.00;;;;;;;;5033615;28;45795;-81
2023/06/23 01:32:40;;;;;;;;;4.75;4.75;;;;;;;;5027635;28;45405;-81
2023/06/23 01:35:11;;;;;;;;;6.25;4.00;;;;;;;;5026742;28;45500;-81
2023/06/23 01:37:41;;;;;;;;;6.50;4.00;;;;;;;;5029141;28;46442;-81
2023/06/23 01:40:12;;;;;;;;;4.25;3.75;;;;;;;;5019735;28;45401;-80
2023/06/23 01:42:41;;;;;;;;;5.75;2.25;;;;;;;;5032090;28;45345;-80
2023/06/23 01:45:07;;;;;;;;;5.00;4.00;;;;;;;;5028835;28;45675;-82
2023/06/23 01:47:38;;;;;;;;;6.50;3.00;;;;;;;;5029099;28;46210;-82
2023/06/23 01:50:05;;;;;;;;;6.50;3.00;;;;;;;;5023983;28;45816;-82
2023/06/23 01:52:34;;;;;;;;;8.75;5.25;;;;;;;;5030416;28;45452;-82
2023/06/23 01:55:00;;;;;;;;;7.25;4.00;;;;;;;;5033270;28;45356;-82
2023/06/23 01:57:26;;;;;;;;;3.50;3.00;;;;;;;;5031176;28;46311;-81
2023/06/23 01:59:52;;;;;;;;;6.25;4.00;;;;;;;;5033615;28;45742;-83
2023/06/23 02:02:18;;;;;;;;;4.25;4.00;;;;;;;;5028399;28;45367;-83
2023/06/23 02:04:45;;;;;;;;;5.00;4.00;;;;;;;;5024413;28;45484;-82
2023/06/23 02:07:11;;;;;;;;;5.50;5.00;;;;;;;;5030341;28;45469;-82
2023/06/23 02:09:37;;;;;;;;;5.50;3.00;;;;;;;;5003865;28;46190;-79
2023/06/23 02:12:06;;;;;;;;;7.50;3.50;;;;;;;;5028980;28;45467;-80
2023/06/23 02:14:31;;;;;;;;;5.00;5.00;;;;;;;;5030670;28;45436;-83
2023/06/23 02:16:57;;;;;;;;;3.75;3.75;;;;;;;;5011684;28;47422;-81
2023/06/23 02:19:23;;;;;;;;;4.75;4.00;;;;;;;;5031514;28;45524;-82
2023/06/23 02:21:49;;;;;;;;;3.25;3.00;;;;;;;;5013779;28;45389;-81
2023/06/23 02:24:14;;;;;;;;;5.25;4.00;;;;;;;;5028084;28;46013;-81
2023/06/23 02:26:40;;;;;;;;;6.75;3.00;;;;;;;;5010287;28;46106;-80
2023/06/23 02:29:06;;;;;;;;;4.50;3.00;;;;;;;;5030780;28;45384;-80
2023/06/23 02:31:33;;;;;;;;;3.50;3.25;;;;;;;;5014061;28;45498;-82
2023/06/23 02:33:58;;;;;;;;;2.75;2.50;;;;;;;;5031646;28;45504;-80
2023/06/23 02:36:28;;;;;;;;;3.33;2.67;;;;;;;;5029271;28;46524;-81
2023/06/23 02:38:55;;;;;;;;;2.75;2.00;;;;;;;;5024683;28;45444;-80
2023/06/23 02:41:22;;;;;;;;;6.75;2.50;;;;;;;;5031550;28;45558;-79
2023/06/23 02:43:54;;;;;;;;;3.50;3.50;;;;;;;;5035705;28;45491;-81
2023/06/23 02:46:21;;;;;;;;;3.00;2.00;;;;;;;;5028922;28;46368;-80
2023/06/23 02:48:48;;;;;;;;;3.25;2.75;;;;;;;;5026838;28;45340;-81
2023/06/23 02:51:16;;;;;;;;;2.75;2.00;;;;;;;;5033474;28;45480;-81
2023/06/23 02:53:46;;;;;;;;;3.00;1.00;;;;;;;;5030375;28;45341;-80
2023/06/23 02:56:16;;;;;;;;;3.75;2.00;;;;;;;;5033950;28;46399;-81
2023/06/23 02:58:43;;;;;;;;;3.50;2.75;;;;;;;;5016176;28;45935;-82
2023/06/23 03:01:09;;;;;;;;;4.50;1.00;;;;;;;;5034014;28;46761;-79
2023/06/23 03:03:34;;;;;;;;;4.75;2.75;;;;;;;;5035393;28;45523;-81
2023/06/23 03:06:00;;;;;;;;;3.50;2.25;;;;;;;;5024904;28;46304;-81
2023/06/23 03:08:25;;;;;;;;;3.25;2.50;;;;;;;;5028237;28;45584;-81
2023/06/23 03:10:51;;;;;;;;;3.00;2.00;;;;;;;;5034536;28;46466;-78
2023/06/23 03:13:16;;;;;;;;;1.50;1.50;;;;;;;;5025111;28;45537;-82
2023/06/23 03:15:41;;;;;;;;;3.25;3.00;;;;;;;;5032850;28;45697;-82
2023/06/23 03:18:11;;;;;;;;;4.25;1.25;;;;;;;;5033035;28;45594;-82
2023/06/23 03:20:38;;;;;;;;;3.25;2.25;;;;;;;;5026254;28;45470;-80
2023/06/23 03:23:05;;;;;;;;;2.00;2.00;;;;;;;;5037008;28;45443;-81
2023/06/23 03:25:30;;;;;;;;;4.75;4.00;;;;;;;;5033057;28;46901;-82
2023/06/23 03:27:57;;;;;;;;;3.00;3.00;;;;;;;;5029177;28;45471;-81
2023/06/23 03:30:24;;;;;;;;;4.75;2.00;;;;;;;;5029469;28;45365;-81
2023/06/23 03:32:51;;;;;;;;;5.50;1.75;;;;;;;;5034502;28;45559;-81
2023/06/23 03:35:28;;;;;;;;;4.75;3.00;;;;;;;;5031962;28;46449;-81
2023/06/23 03:37:59;;;;;;;;;4.00;3.00;;;;;;;;5027941;28;45916;-81
2023/06/23 03:40:25;;;;;;;;;4.50;2.75;;;;;;;;5031037;28;45333;-81
2023/06/23 03:42:56;;;;;;;;;3.75;3.25;;;;;;;;5020758;28;45584;-82
2023/06/23 03:45:23;;;;;;;;;2.50;2.50;;;;;;;;5031371;28;46095;-81
2023/06/23 03:47:49;;;;;;;;;4.25;2.50;;;;;;;;5030380;28;45325;-83
2023/06/23 03:50:20;;;;;;;;;3.25;3.25;;;;;;;;5030197;28;45707;-82
2023/06/23 03:52:46;;;;;;;;;8.50;4.50;;;;;;;;5035272;28;45511;-82
2023/06/23 03:55:15;;;;;;;;;4.25;3.00;;;;;;;;5034280;28;46864;-84
2023/06/23 03:57:42;;;;;;;;;5.50;3.00;;;;;;;;5030642;28;45397;-81
2023/06/23 04:00:08;;;;;;;;;2.75;2.75;;;;;;;;5026506;28;45709;-81
2023/06/23 04:02:34;;;;;;;;;3.50;3.00;;;;;;;;5032504;28;46541;-81
2023/06/23 04:04:59;;;;;;;;;5.25;2.25;;;;;;;;5025918;28;45653;-81
2023/06/23 04:07:25;;;;;;;;;4.75;4.75;;;;;;;;5013034;28;45591;-81
2023/06/23 04:09:51;;;;;;;;;3.25;1.50;;;;;;;;5025103;28;45460;-80
2023/06/23 04:12:17;;;;;;;;;4.50;2.50;;;;;;;;5033524;28;45431;-80
2023/06/23 04:14:47;;;;;;;;;7.00;3.00;;;;;;;;5032092;28;45461;-81
2023/06/23 04:17:13;;;;;;;;;3.00;3.00;;;;;;;;5024881;28;45802;-81
2023/06/23 04:19:40;;;;;;;;;2.50;2.25;;;;;;;;5024422;28;45423;-82
2023/06/23 04:22:06;;;;;;;;;3.50;2.00;;;;;;;;5028122;28;45388;-81
2023/06/23 04:24:33;;;;;;;;;3.00;2.00;;;;;;;;5033271;28;45522;-81
2023/06/23 04:26:59;;;;;;;;;3.25;2.50;;;;;;;;5034778;28;45510;-80
2023/06/23 04:29:25;;;;;;;;;3.00;3.00;;;;;;;;5033757;28;45494;-81
2023/06/23 04:31:52;;;;;;;;;3.25;3.00;;;;;;;;5028013;28;45331;-80
2023/06/23 04:34:18;;;;;;;;;3.25;2.00;;;;;;;;5031497;28;46084;-80
2023/06/23 04:36:46;;;;;;;;;5.00;3.00;;;;;;;;5033948;28;45746;-80
2023/06/23 04:39:19;;;;;;;;;7.25;2.25;;;;;;;;5029113;28;45653;-80
2023/06/23 04:41:46;;;;;;;;;2.75;2.00;;;;;;;;5008733;28;45454;-81
2023/06/23 04:44:12;;;;;;;;;5.00;2.50;;;;;;;;5020294;28;46053;-80
2023/06/23 04:46:39;;;;;;;;;3.50;3.00;;;;;;;;5026686;28;45778;-81
2023/06/23 04:49:09;;;;;;;;;5.00;4.00;;;;;;;;5028216;28;45798;-80
2023/06/23 04:51:38;;;;;;;;;3.50;2.75;;;;;;;;5034989;28;45430;-81
2023/06/23 04:54:06;;;;;;;;;1.75;1.75;;;;;;;;5030921;28;46579;-80
2023/06/23 04:56:34;;;;;;;;;3.00;2.00;;;;;;;;5030456;28;45774;-81
2023/06/23 04:59:00;;;;;;;;;4.00;3.00;;;;;;;;5031295;28;45447;-81
2023/06/23 05:01:26;;;;;;;;;3.75;2.00;;;;;;;;5032998;28;45368;-81
2023/06/23 05:03:52;;;;;;;;;5.25;3.75;;;;;;;;5032829;28;45459;-80
2023/06/23 05:06:18;;;;;;;;;5.00;2.00;;;;;;;;5032928;28;45546;-80
2023/06/23 05:08:48;;;;;;;;;3.25;2.00;;;;;;;;5032232;28;45495;-82
2023/06/23 05:11:14;;;;;;;;;4.25;2.50;;;;;;;;5028317;28;45368;-82
2023/06/23 05:13:40;;;;;;;;;6.25;2.75;;;;;;;;5032849;28;46116;-80
2023/06/23 05:16:10;;;;;;;;;2.00;2.00;;;;;;;;5027331;28;45541;-81
2023/06/23 05:18:35;;;;;;;;;2.75;2.75;;;;;;;;5015511;28;45501;-80
2023/06/23 05:21:01;;;;;;;;;2.00;2.00;;;;;;;;5029992;28;45281;-81
2023/06/23 05:23:27;;;;;;;;;2.75;1.00;;;;;;;;5026815;28;45996;-84
2023/06/23 05:25:56;;;;;;;;;2.00;2.00;;;;;;;;5027873;28;45412;-85
2023/06/23 05:28:24;;;;;;;;;3.50;3.50;;;;;;;;5032780;28;45396;-86
2023/06/23 05:30:55;;;;;;;;;5.00;3.25;;;;;;;;5030556;28;45276;-88
2023/06/23 05:33:21;;;;;;;;;3.50;1.75;;;;;;;;5026387;28;46218;-84
2023/06/23 05:35:50;;;;;;;;;2.00;1.00;;;;;;;;5012628;28;45707;-91
2023/06/23 05:38:17;;;;;;;;;3.50;1.50;;;;;;;;5018507;28;45222;-90
2023/06/23 05:40:42;;;;;;;;;5.25;2.50;;;;;;;;5010549;28;45470;-88
2023/06/23 05:43:07;;;;;;;;;3.67;3.00;;;;;;;;5033459;28;45522;-93
2023/06/23 05:45:32;;;;;;;;;3.00;2.00;;;;;;;;5015164;28;46222;-93
2023/06/23 05:48:03;;;;;;;;;4.00;3.00;;;;;;;;5032490;28;45407;-91
2023/06/23 05:50:31;;;;;;;;;4.00;2.00;;;;;;;;5029912;28;45722;-92
2023/06/23 05:52:58;;;;;;;;;4.00;2.00;;;;;;;;5033232;28;46414;-94
2023/06/23 05:55:24;;;;;;;;;4.00;2.50;;;;;;;;5026120;28;46518;-93
2023/06/23 05:57:52;;;;;;;;;5.75;2.50;;;;;;;;5004805;28;45435;-92
2023/06/23 06:00:18;;;;;;;;;3.50;3.25;;;;;;;;5026424;28;45530;-93
2023/06/23 06:02:46;;;;;;;;;3.50;2.00;;;;;;;;5035529;28;46356;-95
2023/06/23 06:05:14;;;;;;;;;2.50;2.25;;;;;;;;5016864;28;45254;-93
2023/06/23 06:07:40;;;;;;;;;3.00;3.00;;;;;;;;5033758;28;45356;-91
2023/06/23 06:10:07;;;;;;;;;3.75;2.25;;;;;;;;5030406;28;45518;-85
2023/06/23 06:12:33;;;;;;;;;3.75;2.50;;;;;;;;5003276;28;47526;-90
2023/06/23 06:15:00;;;;;;;;;5.75;1.00;;;;;;;;5014645;28;46233;-92
2023/06/23 06:17:26;;;;;;;;;2.75;2.50;;;;;;;;5032592;28;45315;-92
2023/06/23 06:19:54;;;;;;;;;3.00;3.00;;;;;;;;5029269;28;45368;-92
2023/06/23 06:22:20;;;;;;;;;4.00;3.00;;;;;;;;5011029;28;48178;-92
2023/06/23 06:24:46;;;;;;;;;3.75;1.75;;;;;;;;5032116;28;45539;-89
2023/06/23 06:27:13;;;;;;;;;3.50;2.00;;;;;;;;5027029;28;45536;-91
2023/06/23 06:29:38;;;;;;;;;5.25;2.75;;;;;;;;5027946;28;45668;-91
2023/06/23 06:32:06;;;;;;;;;5.25;3.00;;;;;;;;5024323;28;45647;-88
2023/06/23 06:34:34;;;;;;;;;2.25;2.00;;;;;;;;5006843;28;45535;-93
2023/06/23 06:37:01;;;;;;;;;2.25;2.00;;;;;;;;5005078;28;45554;-86
2023/06/23 06:39:28;;;;;;;;;1.25;1.25;;;;;;;;5031586;28;46595;-89
2023/06/23 06:41:53;;;;;;;;;2.50;2.00;;;;;;;;5016907;28;47321;-91
2023/06/23 06:44:18;;;;;;;;;3.00;2.00;;;;;;;;5013276;28;45726;-88
2023/06/23 06:46:45;;;;;;;;;4.00;3.00;;;;;;;;5028902;28;46008;-89
2023/06/23 06:49:12;;;;;;;;;3.25;2.75;;;;;;;;5024903;28;46240;-92
2023/06/23 06:51:42;;;;;;;;;3.00;3.00;;;;;;;;5029545;28;45445;-90
2023/06/23 06:54:07;;;;;;;;;2.00;2.00;;;;;;;;5022074;28;45955;-90
2023/06/23 06:56:33;;;;;;;;;5.25;4.00;;;;;;;;5013633;28;45361;-85
2023/06/23 06:58:58;;;;;;;;;2.00;2.00;;;;;;;;5018880;28;45445;-91
2023/06/23 07:01:24;;;;;;;;;3.00;3.00;;;;;;;;5024452;28;46830;-91
2023/06/23 07:03:50;;;;;;;;;7.25;2.25;;;;;;;;5028572;28;45469;-88
2023/06/23 07:06:15;;;;;;;;;5.00;4.50;;;;;;;;5029384;28;46008;-87
2023/06/23 07:08:40;;;;;;;;;3.00;2.00;;;;;;;;5005832;28;45378;-88
2023/06/23 07:11:06;;;;;;;;;2.00;2.00;;;;;;;;5030709;28;46398;-88
2023/06/23 07:13:31;;;;;;;;;5.67;3.00;;;;;;;;5014711;28;45673;-88
2023/06/23 07:15:56;;;;;;;;;8.00;2.00;;;;;;;;5012858;28;45283;-87
2023/06/23 07:18:23;;;;;;;;;5.00;3.00;;;;;;;;5029284;28;45401;-89
2023/06/23 07:20:48;;;;;;;;;2.75;1.00;;;;;;;;5030509;28;46312;-89
2023/06/23 07:23:14;;;;;;;;;4.00;3.00;;;;;;;;5032237;28;45201;-87
2023/06/23 07:25:39;;;;;;;;;2.00;2.00;;;;;;;;5029855;28;45463;-88
2023/06/23 07:28:04;;;;;;;;;2.67;2.00;;;;;;;;5029394;28;45659;-89
2023/06/23 07:30:29;;;;;;;;;3.33;2.33;;;;;;;;5030226;28;46332;-87
2023/06/23 07:32:55;;;;;;;;;2.25;2.00;;;;;;;;5026413;28;45447;-87
2023/06/23 07:35:20;;;;;;;;;4.75;2.00;;;;;;;;5024903;28;45377;-88
2023/06/23 07:37:45;;;;;;;;;3.00;2.00;;;;;;;;5023682;28;46552;-89
2023/06/23 07:40:11;;;;;;;;;2.67;1.67;;;;;;;;5024667;28;46539;-86
2023/06/23 07:42:36;;;;;;;;;5.25;2.75;;;;;;;;5029620;28;45424;-87
2023/06/23 07:45:01;;;;;;;;;2.33;2.00;;;;;;;;5032148;28;45353;-87
2023/06/23 07:47:27;;;;;;;;;3.50;1.75;;;;;;;;5031455;28;46948;-86
2023/06/23 07:49:52;;;;;;;;;2.00;2.00;;;;;;;;5026838;28;45654;-88
2023/06/23 07:52:17;;;;;;;;;4.00;2.00;;;;;;;;5024181;28;45482;-87
2023/06/23 07:54:42;;;;;;;;;5.67;3.00;;;;;;;;5014659;28;45674;-86
2023/06/23 07:57:08;;;;;;;;;5.00;3.00;;;;;;;;5035172;28;45459;-87
2023/06/23 07:59:36;;;;;;;;;3.75;3.00;;;;;;;;5024578;28;46041;-87
2023/06/23 08:02:01;;;;;;;;;3.75;3.00;;;;;;;;5017187;28;45428;-87
2023/06/23 08:04:26;;;;;;;;;4.33;2.67;;;;;;;;5033243;28;45393;-87
2023/06/23 08:06:52;;;;;;;;;3.67;3.00;;;;;;;;5031322;28;45623;-87
2023/06/23 08:09:17;;;;;;;;;4.25;2.50;;;;;;;;5013102;28;47180;-87
2023/06/23 08:11:42;;;;;;;;;3.25;2.00;;;;;;;;5016657;28;45520;-88
2023/06/23 08:14:08;;;;;;;;;1.00;1.00;;;;;;;;5031831;28;45274;-87
2023/06/23 08:16:33;;;;;;;;;0.00;0.00;;;;;;;;5033523;28;45356;-87
2023/06/23 08:18:58;;;;;;;;;3.00;2.50;;;;;;;;5033679;28;46283;-88
2023/06/23 08:21:26;;;;;;;;;4.00;2.00;;;;;;;;5007855;28;45841;-87
2023/06/23 08:23:51;;;;;;;;;2.00;2.00;;;;;;;;5010966;28;45603;-86
2023/06/23 08:26:18;;;;;;;;;3.00;2.00;;;;;;;;5005659;28;45461;-88
2023/06/23 08:28:43;;;;;;;;;2.25;2.25;;;;;;;;5030671;28;46682;-88
2023/06/23 08:31:08;;;;;;;;;3.00;1.50;;;;;;;;5012261;28;45574;-89
2023/06/23 08:33:34;;;;;;;;;2.75;2.00;;;;;;;;5024795;28;45472;-90
2023/06/23 08:35:59;;;;;;;;;10.50;7.00;;;;;;;;5019401;28;45794;-88
2023/06/23 08:38:25;;;;;;;;;2.25;2.00;;;;;;;;5031741;28;46987;-86
2023/06/23 08:40:51;;;;;;;;;2.00;2.00;;;;;;;;5031521;28;45301;-89
2023/06/23 08:43:23;;;;;;;;;3.00;1.50;;;;;;;;5034583;28;45483;-90
2023/06/23 08:45:53;;;;;;;;;3.00;1.50;;;;;;;;5030139;28;45539;-88
2023/06/23 08:48:19;;;;;;;;;2.00;2.00;;;;;;;;5027334;28;45404;-89
2023/06/23 08:50:44;;;;;;;;;2.00;0.50;;;;;;;;5031655;28;45736;-89
2023/06/23 08:53:10;;;;;;;;;3.75;2.00;;;;;;;;5028917;28;45584;-87
2023/06/23 08:55:35;;;;;;;;;2.00;1.00;;;;;;;;5031262;28;46459;-86
2023/06/23 08:58:01;;;;;;;;;2.75;1.00;;;;;;;;5033336;28;47048;-86
2023/06/23 09:00:27;;;;;;;;;3.25;1.50;;;;;;;;5031060;28;45474;-87
2023/06/23 09:02:52;;;;;;;;;2.50;1.75;;;;;;;;5027149;28;45660;-88
2023/06/23 09:05:18;;;;;;;;;0.00;0.00;;;;;;;;5032098;28;45376;-87
2023/06/23 09:07:44;;;;;;;;;1.00;0.33;;;;;;;;5024228;28;46993;-88
2023/06/23 09:10:10;;;;;;;;;0.50;0.50;;;;;;;;5019686;28;45665;-89
2023/06/23 09:12:36;;;;;;;;;0.75;0.75;;;;;;;;5026463;28;45507;-86
2023/06/23 09:15:02;;;;;;;;;0.25;0.25;;;;;;;;5022614;28;45477;-88
2023/06/23 09:17:38;;;;;;;;;2.00;1.00;;;;;;;;5033119;28;46183;-88
2023/06/23 09:20:03;;;;;;;;;0.75;0.75;;;;;;;;5030807;28;45877;-86
2023/06/23 09:22:30;;;;;;;;;1.75;0.25;;;;;;;;5029133;28;45387;-86
2023/06/23 09:24:56;;;;;;;;;1.00;0.50;;;;;;;;5027085;28;45733;-85
2023/06/23 09:27:38;;;;;;;;;0.00;0.00;;;;;;;;5028139;28;46999;-86
2023/06/23 09:30:03;;;;;;;;;2.00;1.00;;;;;;;;5023195;28;45413;-87
2023/06/23 09:32:29;;;;;;;;;1.00;0.00;;;;;;;;5011739;28;45295;-86
2023/06/23 09:34:55;;;;;;;;;1.50;1.00;;;;;;;;5032425;28;45391;-86
2023/06/23 09:37:20;;;;;;;;;1.50;0.75;;;;;;;;5031423;28;46175;-86
2023/06/23 09:39:48;;;;;;;;;4.00;1.00;;;;;;;;5018397;28;46297;-85
2023/06/23 09:42:14;;;;;;;;;1.50;0.00;;;;;;;;5032399;28;45361;-86
2023/06/23 09:44:40;;;;;;;;;0.00;0.00;;;;;;;;5031856;28;45483;-86
2023/06/23 09:47:06;;;;;;;;;0.50;0.50;;;;;;;;5023655;28;47543;-84
2023/06/23 09:49:41;;;;;;;;;1.00;1.00;;;;;;;;5026955;28;45492;-86
2023/06/23 09:52:07;;;;;;;;;3.00;1.00;;;;;;;;5023447;28;45416;-87
2023/06/23 09:54:33;;;;;;;;;0.75;0.75;;;;;;;;5030542;28;45523;-86
2023/06/23 10:03:22;;;;;;;;;1.00;1.00;;;;;;;;5017853;28;45451;-95
2023/06/23 10:05:50;;;;;;;;;2.25;1.00;;;;;;;;5026232;28;45531;-87
2023/06/23 10:08:18;;;;;;;;;1.00;1.00;;;;;;;;5025627;28;46350;-88
2023/06/23 10:10:44;;;;;;;;;0.00;0.00;;;;;;;;5027170;28;45873;-87
2023/06/23 10:13:09;;;;;;;;;3.00;0.75;;;;;;;;5030349;28;45512;-88
2023/06/23 10:15:35;;;;;;;;;1.25;1.00;;;;;;;;5028913;28;45412;-89
2023/06/23 10:18:01;;;;;;;;;1.00;0.75;;;;;;;;5016410;28;47127;-88
2023/06/23 10:20:26;;;;;;;;;0.75;0.75;;;;;;;;5032380;28;46672;-95
2023/06/23 10:22:53;;;;;;;;;3.33;1.00;;;;;;;;5029351;28;45554;-87
2023/06/23 10:25:19;;;;;;;;;1.00;1.00;;;;;;;;5023840;28;45362;-86
2023/06/23 10:27:49;;;;;;;;;1.25;1.00;;;;;;;;5030261;28;47970;-87
2023/06/23 10:30:16;;;;;;;;;2.00;1.00;;;;;;;;5019950;28;45512;-84
2023/06/23 10:32:44;;;;;;;;;3.75;1.00;;;;;;;;5025624;28;46566;-84
2023/06/23 10:35:10;;;;;;;;;1.00;1.00;;;;;;;;5022586;28;45587;-82
2023/06/23 10:37:35;;;;;;;;;1.00;1.00;;;;;;;;5030208;28;47323;-86
2023/06/23 10:40:02;;;;;;;;;1.25;1.25;;;;;;;;5031057;28;45427;-82
2023/06/23 10:42:28;;;;;;;;;1.00;1.00;;;;;;;;5035772;28;45527;-81
2023/06/23 10:44:54;;;;;;;;;0.00;0.00;;;;;;;;5032222;28;45394;-82
2023/06/23 10:47:19;;;;;;;;;3.25;1.25;;;;;;;;5025987;28;47293;-81
2023/06/23 10:49:44;;;;;;;;;2.00;1.00;;;;;;;;5024406;28;45436;-84
2023/06/23 10:52:10;;;;;;;;;2.25;1.00;;;;;;;;5032127;28;45488;-82
2023/06/23 10:54:35;;;;;;;;;2.25;1.25;;;;;;;;5030971;28;45460;-85
2023/06/23 10:57:07;;;;;;;;;2.00;1.00;;;;;;;;5021416;28;47394;-84
2023/06/23 10:59:32;;;;;;;;;4.00;1.00;;;;;;;;5020628;28;45735;-83
2023/06/23 11:01:57;;;;;;;;;2.00;2.00;;;;;;;;5035009;28;45365;-82
2023/06/23 11:04:26;;;;;;;;;1.00;1.00;;;;;;;;5013006;28;45496;-87
2023/06/23 11:07:05;;;;;;;;;3.50;1.00;;;;;;;;5030110;28;46436;-88
2023/06/23 11:09:45;;;;;;;;;2.00;1.00;;;;;;;;5034964;28;45226;-88
2023/06/23 11:12:32;;;;;;;;;4.25;1.50;;;;;;;;5023212;28;45388;-85
2023/06/23 11:15:09;;;;;;;;;1.00;0.50;;;;;;;;5031273;28;45341;-85
2023/06/23 11:17:41;;;;;;;;;1.75;1.75;;;;;;;;5026622;28;46508;-84
2023/06/23 11:20:24;;;;;;;;;3.00;2.00;;;;;;;;5027965;28;45508;-83
2023/06/23 11:23:00;;;;;;;;;1.50;1.00;;;;;;;;5032686;28;45487;-81
2023/06/23 11:25:26;;;;;;;;;1.50;1.00;;;;;;;;5025671;28;45600;-81
2023/06/23 11:28:29;;;;;;;;;1.00;1.00;;;;;;;;5027569;28;47251;-84
2023/06/23 11:31:11;;;;;;;;;0.00;0.00;;;;;;;;4944474;28;45756;-83
2023/06/23 11:33:37;;;;;;;;;2.75;0.75;;;;;;;;4949664;28;45547;-84
2023/06/23 11:36:03;;;;;;;;;1.00;1.00;;;;;;;;4946569;28;45664;-85
2023/06/23 11:38:30;;;;;;;;;3.50;2.00;;;;;;;;4942561;28;46321;-89
2023/06/23 11:40:58;;;;;;;;;2.00;1.00;;;;;;;;4945096;28;45453;-87
2023/06/23 11:43:23;;;;;;;;;1.00;1.00;;;;;;;;4941945;28;46505;-89
2023/06/23 11:45:54;;;;;;;;;1.00;1.00;;;;;;;;4957563;28;45451;-96
2023/06/23 11:48:20;;;;;;;;;1.00;1.00;;;;;;;;4954719;28;46239;-94
2023/06/23 11:50:45;;;;;;;;;0.50;0.50;;;;;;;;4954437;28;45887;-93
2023/06/23 11:53:10;;;;;;;;;3.00;2.00;;;;;;;;4957039;28;45418;-89
2023/06/23 11:55:35;;;;;;;;;2.67;2.00;;;;;;;;4944715;28;45414;-85
2023/06/23 11:58:01;;;;;;;;;3.00;1.00;;;;;;;;4940882;28;46227;-87
2023/06/23 12:00:26;;;;;;;;;2.00;2.00;;;;;;;;4947309;28;45736;-90
2023/06/23 12:02:51;;;;;;;;;3.00;1.67;;;;;;;;5024017;28;45392;-87
2023/06/23 12:05:17;;;;;;;;;2.00;2.00;;;;;;;;5026597;28;45537;-88
2023/06/23 12:07:42;;;;;;;;;2.33;1.33;;;;;;;;5033054;28;46967;-93
2023/06/23 12:10:08;;;;;;;;;1.00;0.33;;;;;;;;5024114;28;45454;-93
2023/06/23 12:12:34;;;;;;;;;1.00;1.00;;;;;;;;5028985;28;45460;-94
2023/06/23 12:15:00;;;;;;;;;2.00;1.00;;;;;;;;5012840;28;45541;-94
2023/06/23 12:17:25;;;;;;;;;3.00;0.50;;;;;;;;5031185;28;46872;-92
2023/06/23 12:19:55;;;;;;;;;1.67;1.00;;;;;;;;5003046;28;45977;-91
2023/06/23 12:22:20;;;;;;;;;1.75;1.75;;;;;;;;5024845;28;45504;-96
2023/06/23 12:24:46;;;;;;;;;0.25;0.25;;;;;;;;5026098;28;45305;-92
2023/06/23 12:27:11;;;;;;;;;1.00;1.00;;;;;;;;5033102;28;45568;-92
2023/06/23 12:29:37;;;;;;;;;0.50;0.00;;;;;;;;5034679;28;45584;-92
2023/06/23 12:32:02;;;;;;;;;2.75;1.50;;;;;;;;5032606;28;45488;-94
2023/06/23 12:34:35;;;;;;;;;1.75;1.25;;;;;;;;5031600;28;45449;-94
2023/06/23 12:37:02;;;;;;;;;0.00;0.00;;;;;;;;5013945;28;47404;-93
2023/06/23 12:39:28;;;;;;;;;1.00;0.00;;;;;;;;5029806;28;45699;-94
2023/06/23 12:41:54;;;;;;;;;0.00;0.00;;;;;;;;5015304;28;45858;-92
2023/06/23 12:44:20;;;;;;;;;0.50;0.50;;;;;;;;5031601;28;45680;-94
2023/06/23 12:46:46;;;;;;;;;0.25;0.25;;;;;;;;5034377;28;45633;-92
2023/06/23 12:49:12;;;;;;;;;0.00;0.00;;;;;;;;5005983;28;46277;-92
2023/06/23 12:51:38;;;;;;;;;1.00;1.00;;;;;;;;5016377;28;45363;-92
2023/06/23 12:54:03;;;;;;;;;2.75;0.00;;;;;;;;5025510;28;45557;-91
2023/06/23 12:56:28;;;;;;;;;2.25;1.00;;;;;;;;5032220;28;46411;-92
2023/06/23 12:58:54;;;;;;;;;1.00;0.25;;;;;;;;5013128;28;45464;-90
2023/06/23 13:01:19;;;;;;;;;0.00;0.00;;;;;;;;5031680;28;45360;-92
2023/06/23 13:03:46;;;;;;;;;1.00;0.00;;;;;;;;5027808;28;45480;-91
2023/06/23 13:06:11;;;;;;;;;0.25;0.00;;;;;;;;5033740;28;45676;-91
2023/06/23 13:08:37;;;;;;;;;2.00;0.00;;;;;;;;5026934;28;45381;-93
2023/06/23 13:11:02;;;;;;;;;0.25;0.25;;;;;;;;5013030;28;45514;-88
2023/06/23 13:13:27;;;;;;;;;0.75;0.00;;;;;;;;5035261;28;45516;-91
2023/06/23 13:15:53;;;;;;;;;1.00;1.00;;;;;;;;5024589;28;46890;-88
2023/06/23 13:18:18;;;;;;;;;11.33;11.00;;;;;;;;5027318;28;45424;-90
2023/06/23 13:20:43;;;;;;;;;0.00;0.00;;;;;;;;5029797;28;45384;-88
2023/06/23 13:23:09;;;;;;;;;0.00;0.00;;;;;;;;5029252;28;45482;-91
2023/06/23 13:25:34;;;;;;;;;0.00;0.00;;;;;;;;5028446;28;46485;-91
2023/06/23 13:27:59;;;;;;;;;0.00;0.00;;;;;;;;5023273;28;45526;-95
2023/06/23 13:30:24;;;;;;;;;1.25;0.00;;;;;;;;5037068;28;45533;-96
2023/06/23 13:32:50;;;;;;;;;0.67;0.00;;;;;;;;5033119;28;46233;-95
2023/06/23 13:35:15;;;;;;;;;0.00;0.00;;;;;;;;5029758;28;46204;-94
2023/06/23 13:37:40;;;;;;;;;3.33;0.00;;;;;;;;5032450;28;45187;-89
2023/06/23 13:40:06;;;;;;;;;2.00;0.33;;;;;;;;5039040;28;45872;-95
2023/06/23 13:42:32;;;;;;;;;0.00;0.00;;;;;;;;5036964;28;45486;-96
2023/06/23 13:44:57;;;;;;;;;0.50;0.50;;;;;;;;5035887;28;45748;-93
2023/06/23 13:47:22;;;;;;;;;1.00;0.00;;;;;;;;5028858;28;45405;-89
2023/06/23 13:49:48;;;;;;;;;1.00;0.00;;;;;;;;5029184;28;45337;-96
2023/06/23 13:52:13;;;;;;;;;0.00;0.00;;;;;;;;5034536;28;45462;-87
2023/06/23 13:54:39;;;;;;;;;0.00;0.00;;;;;;;;5024973;28;46515;-88
2023/06/23 13:57:05;;;;;;;;;0.00;0.00;;;;;;;;5032876;28;45622;-87
2023/06/23 13:59:30;;;;;;;;;0.00;0.00;;;;;;;;5029603;28;45416;-89
2023/06/23 14:01:55;;;;;;;;;0.00;0.00;;;;;;;;5013208;28;45327;-93
2023/06/23 14:04:20;;;;;;;;;1.33;0.00;;;;;;;;5023957;28;46276;-93
2023/06/23 14:06:47;;;;;;;;;1.67;0.00;;;;;;;;5023996;28;45305;-93
2023/06/23 14:09:13;;;;;;;;;0.00;0.00;;;;;;;;5033283;28;45413;-94
2023/06/23 14:11:38;;;;;;;;;0.00;0.00;;;;;;;;5035338;28;46452;-94
2023/06/23 14:14:03;;;;;;;;;1.67;0.00;;;;;;;;5023170;28;45455;-94
2023/06/23 14:16:28;;;;;;;;;0.00;0.00;;;;;;;;5018509;28;45387;-95
2023/06/23 14:18:54;;;;;;;;;2.67;0.00;;;;;;;;5008534;28;45482;-93
2023/06/23 14:21:19;;;;;;;;;2.33;1.00;;;;;;;;5024194;28;45385;-93
2023/06/23 14:23:44;;;;;;;;;0.00;0.00;;;;;;;;5029341;28;46091;-90
2023/06/23 14:26:09;;;;;;;;;1.33;0.00;;;;;;;;5037291;28;45471;-91
2023/06/23 14:28:37;;;;;;;;;1.00;0.00;;;;;;;;5035860;28;45562;-90
2023/06/23 14:31:03;;;;;;;;;0.00;0.00;;;;;;;;5030342;28;45427;-91
2023/06/23 14:33:28;;;;;;;;;0.00;0.00;;;;;;;;5014631;28;46973;-91
2023/06/23 14:35:53;;;;;;;;;0.00;0.00;;;;;;;;5016786;28;45445;-91
2023/06/23 14:38:18;;;;;;;;;0.00;0.00;;;;;;;;5033763;28;45387;-91
2023/06/23 14:40:43;;;;;;;;;1.00;1.00;;;;;;;;5035627;28;45436;-91
2023/06/23 14:43:09;;;;;;;;;1.00;1.00;;;;;;;;5009444;28;47251;-91
2023/06/23 14:45:35;;;;;;;;;0.00;0.00;;;;;;;;5032670;28;45446;-90
2023/06/23 14:48:00;;;;;;;;;0.75;0.00;;;;;;;;5034286;28;45559;-91